Obirakozan, Japan

12:41 PM JST on 六月 26, 2017 (GMT +0900)
kuju kogen cottage | | Change Station

高度 2900 ft 33.04 °N, 131.22 °E | Updated 14 seconds ago

曇
32.0 °F
体感気温 28 °F
4.3
風 変数 風 から 東北東
Gusts 5.6 Mph

今日
高い -- | 低 -- °F
--% 降水確率
昨日
高い -- | 低 -- °F
Precip. -- インチ
気圧 29.74 インチ
視程 6.2 マイル
だいたい曇 1500 ft
だいたい曇 15000 ft
体感気温(寒さ) 28 °F
露点温度 利用不可。
湿度 利用不可。
降水 0.49 インチ
積雪深 利用不可。
5:08 AM 7:26 PM
三日月, 6% visible
METAR RJFT 260300Z VRB02KT 9999 BKN015 BKN150 26/21 Q1007
気圧 29.74 インチ
視程 6.2 マイル
だいたい曇 1500 ft
だいたい曇 15000 ft
体感気温(寒さ) 28 °F
露点温度 利用不可。
湿度 利用不可。
降水 0.49 インチ
積雪深 利用不可。
5:08 AM 7:26 PM
三日月, 6% visible
METAR RJFT 260300Z VRB02KT 9999 BKN015 BKN150 26/21 Q1007

Get Severe Weather Alerts

Thanks for signing up!

Be on the lookout for a verification email in your inbox.

You'll start receiving the daily forecast at 6 AM.

×

10-Day Weather Forecast

No radar image for this location.
×

Almanac

天文

Jun. 26, 2017 入り
実時間
常用薄明
航海薄明
天文薄明
可視光の長さ
可照時間
Tomorrow will be .
, % of the Moon is Illuminated

今日の極値

Country Highs Country Lows

Community

Category 6

Welcome to Category 6. This is the collective home for Weather Underground's featured writeups by Dr. Jeff Masters (right), Bob Henson (left), Chris Burt, and other regular contributors.

Nearby

空気品質

  空気品質 大気質指数 汚染物質
Not available.

積雪深

Station Depth 高度

地震活動

Distance Mag. Time & Date
Minimum magnitude displayed is 2.5.

沿岸の水温

地名 気温

Stations

最寄りの気象観測所

観測所位置 温度 体感気温(寒さ) 露点温度 湿度 Precip. 高度 更新日時 タイプする